• Join FlightAware (Why Join?)
  • Login
  • US Flag 
12:03AM EDT


 

Airport Tracker/Info


-or-


 

Live Flight TrackerFlight Track Log ✈ ANO332 ✈ 30-Aug-2013 ✈ YPKU / KNX - YBRM / BME

Flight Track Log - Related Links

Times and Time Zones

All times are in EDT time to prevent confusion due to time zone crossing. See the ANO332 flight status page for this flight to view local times or setup timezone preferences in your user account.

Time Position Orientation Groundspeed Altitude Reporting Facility
EDT Latitude Longitude Course Direction KTS MPH feet Rate Location/Type
10:53PM -15.9793 128.1820 247° West 34,000  Level Aus ATC (Calculated)
10:54PM -16.0105 128.1054 249° West 34,000  Level Aus ATC (Calculated)
10:54PM -16.0372 128.0313 360° North 34,000  Level Aus ATC (Calculated)
10:55PM -16.0372 128.0313 248° West 34,000  Level Aus ATC (Calculated)
10:55PM -16.0662 127.9559 248° West 34,000  Level Aus ATC (Calculated)
10:56PM -16.1240 127.8051 39° Northeast 34,000  Level Aus ATC (Calculated)
10:57PM -16.0972 127.8277 256° West  Level FlightAware Approximate
10:57PM -16.1529 127.7296 274° West 34,000  Level Aus ATC (Calculated)
10:58PM -16.1499 127.6902 257° West  Level FlightAware Approximate
10:58PM -16.1817 127.6541 258° West 34,000  Level Aus ATC (Calculated)
11:00PM -16.2101 127.5160 258° West  Level FlightAware Approximate
11:01PM -16.2316 127.4111 258° West  Level FlightAware Approximate
11:01PM -16.3256 127.2764 247° West 34,000  Level Aus ATC (Calculated)
11:02PM -16.3560 127.1998 248° West 34,000  Level Aus ATC (Calculated)
11:03PM -16.3846 127.1242 249° West 34,000  Level Aus ATC (Calculated)
11:04PM -16.4401 126.9739 271° West 34,000  Level Aus ATC (Calculated)
11:06PM -16.4365 126.7800 271° West  Level FlightAware Approximate
11:06PM -16.5258 126.7467 360° North 34,000  Level Aus ATC (Calculated)
11:06PM -16.5258 126.7467 288° West 34,000  Level Aus ATC (Calculated)
11:08PM -16.4874 126.6207 288° West  Level FlightAware Approximate
11:09PM -16.4565 126.5199 288° West  Level FlightAware Approximate
11:09PM -16.6680 126.3677 12° North 34,000  Level Aus ATC (Calculated)
11:10PM -16.4257 126.4192 288° West  Level FlightAware Approximate
11:11PM -16.5452 126.4005 14° North  Level FlightAware Approximate
11:12PM -16.4469 126.4268 14° North  Level FlightAware Approximate
11:12PM -16.8106 125.9874 44° Northeast 34,000  Level Aus ATC (Calculated)
11:13PM -16.3487 126.4530 14° North  Level FlightAware Approximate
11:14PM -16.7419 126.0677 48° Northeast  Level FlightAware Approximate
11:15PM -16.6742 126.1466 48° Northeast  Level FlightAware Approximate
11:16PM -16.6066 126.2255 48° Northeast  Level FlightAware Approximate
11:16PM -16.9784 125.5319 59° Northeast 34,000  Level Aus ATC (Calculated)
11:17PM -16.5389 126.3043 48° Northeast  Level FlightAware Approximate
11:17PM -17.0073 125.4552 62° Northeast 34,000  Level Aus ATC (Calculated)
11:18PM -16.9186 125.6303 58° Northeast  Level FlightAware Approximate
11:19PM -16.9532 125.5471 58° Northeast  Level FlightAware Approximate
11:20PM -16.9001 125.6374 58° Northeast  Level FlightAware Approximate
11:21PM -16.8469 125.7276 58° Northeast  Level FlightAware Approximate
11:21PM -17.1469 125.0744 249° West 34,000  Level Aus ATC (Calculated)
11:22PM -17.2303 124.8457 54° Northeast 34,000  Level Aus ATC (Calculated)
11:23PM -17.2006 124.8881 244° Southwest  Level Estimated
11:24PM -17.2676 124.7431 249° West  Level FlightAware Approximate
11:25PM -17.3036 124.6438 249° West  Level FlightAware Approximate
11:26PM -17.3396 124.5445 249° West  Level FlightAware Approximate
11:27PM -17.3755 124.4451 249° West  Level FlightAware Approximate
11:28PM -17.4114 124.3457 249° West  Level FlightAware Approximate
11:28PM -17.4515 124.2346 69° East 34,000  Level Aus ATC (Calculated)
11:29PM -17.4473 124.2463 249° West  Level FlightAware Approximate
11:30PM -17.4974 124.1069 249° West  Level FlightAware Approximate
11:31PM -17.5331 124.0074 249° West  Level FlightAware Approximate
11:32PM -17.5688 123.9078 249° West  Level FlightAware Approximate
11:32PM -17.6115 123.7511 83° East 400  Level Aus ATC (Calculated)
11:33PM -17.6044 123.8082 249° West  Level FlightAware Approximate
11:34PM -17.5870 123.8599 77° East  Level FlightAware Approximate
11:35PM -17.6104 123.7563 257° West  Level FlightAware Approximate
11:35PM -17.6568 123.5494 77° East 400  Level Aus ATC (Calculated)
11:37PM -17.6208 123.7099 77° East  Level FlightAware Approximate
11:37PM -17.7256 123.2437 77° East 100  Level Aus ATC (Calculated)
11:39PM -17.6959 123.3767 77° East  Level FlightAware Approximate
11:39PM -17.7483 123.1422 257° West 100  Level Aus ATC (Calculated)
11:40PM -17.7692 123.0444 257° West 400 180 Climbing Aus ATC (Calculated)
11:41PM -17.7915 122.9434 77° East 400  Level Aus ATC (Calculated)
11:43PM -17.7475 123.1422 77° East  Level FlightAware Approximate
11:43PM -17.8383 122.7360 77° East 100  Level Aus ATC (Calculated)
11:45PM -17.8004 122.9072 77° East  Level FlightAware Approximate
11:46PM -17.7775 123.0110 77° East  Level FlightAware Approximate
11:46PM -17.9052 122.4311 360° North 100  Level Aus ATC (Calculated)
11:46PM -17.9052 122.4311 360° North 100  Level Aus ATC (Calculated)
11:46PM -17.9052 122.4311 77° East 100  Level Aus ATC (Calculated)
11:48PM -17.8677 122.6025 77° East  Level FlightAware Approximate
11:49PM -17.8448 122.7063 77° East  Level FlightAware Approximate
11:50PM -17.8219 122.8101 77° East  Level FlightAware Approximate
11:51PM -17.7990 122.9139 77° East  Level FlightAware Approximate
11:52PM -17.7760 123.0176 77° East  Level FlightAware Approximate
11:53PM -17.7985 122.9138 257° West  Level Estimated
11:54PM -17.8213 122.8100 257° West  Level FlightAware Approximate
11:55PM -17.9447 122.2317 258° West  Level Estimated